createdAt,value
2024-01-03T00:01:43.784Z,8.60
2024-01-03T00:04:20.986Z,8.40
2024-01-03T00:06:50.461Z,8.80
2024-01-03T00:09:19.759Z,8.80
2024-01-03T00:11:47.144Z,8.50
2024-01-03T00:14:24.649Z,8.60
2024-01-03T00:16:52.029Z,8.60
2024-01-03T00:19:24.512Z,8.80
2024-01-03T00:21:52.241Z,8.60
2024-01-03T00:24:22.648Z,8.80
2024-01-03T00:26:50.258Z,8.90
2024-01-03T00:29:52.893Z,8.80
2024-01-03T00:32:24.058Z,8.50
2024-01-03T00:34:55.363Z,8.70
2024-01-03T00:37:31.410Z,8.40
2024-01-03T00:39:59.577Z,8.60
2024-01-03T00:42:27.497Z,8.60
2024-01-03T00:44:54.975Z,8.40
2024-01-03T00:47:24.257Z,8.60
2024-01-03T00:49:52.664Z,8.80
2024-01-03T00:52:21.688Z,8.60
2024-01-03T00:54:49.702Z,8.70
2024-01-03T00:57:17.168Z,8.60
2024-01-03T00:59:46.729Z,8.70
2024-01-03T01:02:14.546Z,8.80
2024-01-03T01:04:42.904Z,8.60
2024-01-03T01:07:10.846Z,8.50
2024-01-03T01:09:38.086Z,8.80
2024-01-03T01:12:05.544Z,8.60
2024-01-03T01:14:35.144Z,8.90
2024-01-03T01:17:02.430Z,8.70
2024-01-03T01:19:29.670Z,8.60
2024-01-03T01:21:57.136Z,8.40
2024-01-03T01:24:24.385Z,8.60
2024-01-03T01:26:54.633Z,8.50
2024-01-03T01:29:22.989Z,8.90
2024-01-03T01:31:50.159Z,8.70
2024-01-03T01:34:17.502Z,8.80
2024-01-03T01:36:46.846Z,8.50
2024-01-03T01:39:14.131Z,8.50
2024-01-03T01:41:41.451Z,8.60
2024-01-03T01:44:12.720Z,8.50
2024-01-03T01:46:41.546Z,8.50
2024-01-03T01:49:10.006Z,8.40
2024-01-03T01:51:40.820Z,8.60
2024-01-03T01:54:08.156Z,8.50
2024-01-03T01:56:35.923Z,8.40
2024-01-03T01:59:03.445Z,8.60
2024-01-03T02:01:31.362Z,8.40
2024-01-03T02:04:01.367Z,8.10
2024-01-03T02:06:28.955Z,8.40
2024-01-03T02:08:56.169Z,8.40
2024-01-03T02:11:23.392Z,8.30
2024-01-03T02:13:50.628Z,8.10
2024-01-03T02:16:18.185Z,8.30
2024-01-03T02:18:47.393Z,8.20
2024-01-03T02:21:17.050Z,8.00
2024-01-03T02:23:47.454Z,8.00
2024-01-03T02:26:25.612Z,8.30
2024-01-03T02:28:57.090Z,8.30
2024-01-03T02:31:24.296Z,8.20
2024-01-03T02:33:51.712Z,8.10
2024-01-03T02:36:19.264Z,8.20
2024-01-03T02:38:51.062Z,8.00
2024-01-03T02:41:21.068Z,8.10
2024-01-03T02:43:48.355Z,7.90
2024-01-03T02:46:21.841Z,8.30
2024-01-03T02:48:49.246Z,8.20
2024-01-03T02:51:23.852Z,7.90
2024-01-03T02:53:51.426Z,8.30
2024-01-03T02:56:20.184Z,8.10
2024-01-03T02:58:47.475Z,7.90
2024-01-03T03:01:14.769Z,8.20
2024-01-03T03:03:42.589Z,8.20
2024-01-03T03:06:15.208Z,7.90
2024-01-03T03:08:42.538Z,8.20
2024-01-03T03:11:09.734Z,7.90
2024-01-03T03:13:37.016Z,8.20
2024-01-03T03:16:05.519Z,8.20
2024-01-03T03:18:32.826Z,8.00
2024-01-03T03:21:02.873Z,7.90
2024-01-03T03:23:32.536Z,8.00
2024-01-03T03:26:02.980Z,8.20
2024-01-03T03:28:30.212Z,7.90
2024-01-03T03:30:57.712Z,8.20
2024-01-03T03:33:25.250Z,8.20
2024-01-03T03:35:53.848Z,8.10
2024-01-03T03:38:21.374Z,7.80
2024-01-03T03:40:48.751Z,7.90
2024-01-03T03:43:18.250Z,7.90
2024-01-03T03:45:47.974Z,7.70
2024-01-03T03:48:17.290Z,7.90
2024-01-03T03:50:46.985Z,7.70
2024-01-03T03:53:15.351Z,7.80
2024-01-03T03:55:44.431Z,7.90
2024-01-03T03:58:12.426Z,8.00
2024-01-03T04:00:39.733Z,7.70
2024-01-03T04:03:09.360Z,7.70
2024-01-03T04:05:38.332Z,7.50
2024-01-03T04:08:06.243Z,7.80
2024-01-03T04:10:33.728Z,7.60
2024-01-03T04:13:01.153Z,7.70
2024-01-03T04:15:30.699Z,7.60
2024-01-03T04:17:58.423Z,7.60
2024-01-03T04:20:28.250Z,7.60
2024-01-03T04:22:55.441Z,7.70
2024-01-03T04:25:22.733Z,7.80
2024-01-03T04:27:50.123Z,7.60
2024-01-03T04:30:17.371Z,7.60
2024-01-03T04:32:44.570Z,7.60
2024-01-03T04:35:11.780Z,7.70
2024-01-03T04:37:43.252Z,7.70
2024-01-03T04:40:11.641Z,7.90
2024-01-03T04:42:39.036Z,7.90
2024-01-03T04:45:06.563Z,7.60
2024-01-03T04:47:34.337Z,7.60
2024-01-03T04:50:01.787Z,7.60
2024-01-03T04:52:29.029Z,7.60
2024-01-03T04:54:56.264Z,7.70
2024-01-03T04:57:24.193Z,7.60
2024-01-03T04:59:51.430Z,7.80
2024-01-03T05:02:18.666Z,7.50
2024-01-03T05:04:46.561Z,7.60
2024-01-03T05:07:22.834Z,7.70
2024-01-03T05:09:50.043Z,7.60
2024-01-03T05:12:17.192Z,7.60
2024-01-03T05:14:44.665Z,7.60
2024-01-03T05:17:12.007Z,7.80
2024-01-03T05:19:39.257Z,7.70
2024-01-03T05:22:06.726Z,7.90
2024-01-03T05:24:34.001Z,7.60
2024-01-03T05:27:01.782Z,8.10
2024-01-03T05:29:29.314Z,8.00
2024-01-03T05:31:56.634Z,8.00
2024-01-03T05:34:23.901Z,8.10
2024-01-03T05:36:51.155Z,8.00
2024-01-03T05:39:18.391Z,8.30
2024-01-03T05:41:45.613Z,8.20
2024-01-03T05:44:18.630Z,8.20
2024-01-03T05:46:45.990Z,8.20
2024-01-03T05:49:13.477Z,8.10
2024-01-03T05:51:40.790Z,8.20
2024-01-03T05:54:08.247Z,8.00
2024-01-03T05:56:35.495Z,8.00
2024-01-03T05:59:02.754Z,8.00
2024-01-03T06:01:30.014Z,8.10
2024-01-03T06:03:57.341Z,7.80
2024-01-03T06:06:24.727Z,7.90
2024-01-03T06:08:52.356Z,7.90
2024-01-03T06:11:19.593Z,8.00
2024-01-03T06:13:46.830Z,8.00
2024-01-03T06:16:14.194Z,7.80
2024-01-03T06:18:41.477Z,7.80
2024-01-03T06:21:13.043Z,7.80
2024-01-03T06:23:42.095Z,8.20
2024-01-03T06:26:09.260Z,8.00
2024-01-03T06:28:36.373Z,8.00
2024-01-03T06:31:07.492Z,8.50
2024-01-03T06:33:34.944Z,8.40
2024-01-03T06:36:02.347Z,8.50
2024-01-03T06:38:30.786Z,8.50
2024-01-03T06:41:01.100Z,8.60
2024-01-03T06:43:28.298Z,8.50
2024-01-03T06:45:56.802Z,8.50
2024-01-03T06:48:24.119Z,8.40
2024-01-03T06:50:51.475Z,8.70
2024-01-03T06:53:18.747Z,8.70
2024-01-03T06:55:45.928Z,8.60
2024-01-03T06:58:13.297Z,8.60
2024-01-03T07:00:50.099Z,8.40
2024-01-03T07:03:19.510Z,8.60
2024-01-03T07:05:46.895Z,8.60
2024-01-03T07:08:14.418Z,8.40
2024-01-03T07:10:41.729Z,8.50
2024-01-03T07:13:08.971Z,8.50
2024-01-03T07:15:36.738Z,8.70
2024-01-03T07:18:04.100Z,9.20
2024-01-03T07:20:32.110Z,9.30
2024-01-03T07:22:59.283Z,9.70
2024-01-03T07:25:26.473Z,9.90
2024-01-03T07:27:53.753Z,10.00
2024-01-03T07:30:23.145Z,10.20
2024-01-03T07:32:50.447Z,10.00
2024-01-03T07:35:18.095Z,10.60
2024-01-03T07:37:45.818Z,10.50
2024-01-03T07:40:13.138Z,10.60
2024-01-03T07:42:40.360Z,10.60
2024-01-03T07:45:09.256Z,10.50
2024-01-03T07:47:36.590Z,10.80
2024-01-03T07:50:03.954Z,10.70
2024-01-03T07:52:31.173Z,10.60
2024-01-03T07:54:58.322Z,10.60
2024-01-03T07:57:25.500Z,10.70
2024-01-03T07:59:56.065Z,10.50
2024-01-03T08:02:23.363Z,10.40
2024-01-03T08:04:50.554Z,10.70
2024-01-03T08:07:18.075Z,10.40
2024-01-03T08:09:45.310Z,10.40
2024-01-03T08:12:12.528Z,10.10
2024-01-03T08:14:39.843Z,10.10
2024-01-03T08:17:07.732Z,10.20
2024-01-03T08:19:35.229Z,10.20
2024-01-03T08:22:02.860Z,10.20
2024-01-03T08:24:32.898Z,10.30
2024-01-03T08:27:01.096Z,10.10
2024-01-03T08:29:30.379Z,10.50
2024-01-03T08:31:58.121Z,10.40
2024-01-03T08:34:25.307Z,10.30
2024-01-03T08:36:52.521Z,10.30
2024-01-03T08:39:19.602Z,10.40
2024-01-03T08:41:49.000Z,10.60
2024-01-03T08:44:16.350Z,10.30
2024-01-03T08:46:44.299Z,10.60
2024-01-03T08:49:11.754Z,10.90
2024-01-03T08:51:39.776Z,10.50
2024-01-03T08:54:07.469Z,11.00
2024-01-03T08:56:34.645Z,10.80
2024-01-03T08:59:01.880Z,10.90
2024-01-03T09:01:30.511Z,11.10
2024-01-03T09:03:57.789Z,11.00
2024-01-03T09:06:27.145Z,11.10
2024-01-03T09:08:56.737Z,11.00
2024-01-03T09:11:27.300Z,11.00
2024-01-03T09:13:55.031Z,10.80
2024-01-03T09:16:27.545Z,11.10
2024-01-03T09:18:56.518Z,10.90
2024-01-03T09:21:23.973Z,10.90
2024-01-03T09:23:51.976Z,11.00
2024-01-03T09:26:24.735Z,10.80
2024-01-03T09:28:53.509Z,11.00
2024-01-03T09:31:20.754Z,11.00
2024-01-03T09:33:50.612Z,10.90
2024-01-03T09:36:25.291Z,10.90
2024-01-03T09:38:54.951Z,11.00
2024-01-03T09:41:23.918Z,10.90
2024-01-03T09:43:54.677Z,11.20
2024-01-03T09:46:22.126Z,11.00
2024-01-03T09:48:51.082Z,11.10
2024-01-03T09:51:21.049Z,11.30
2024-01-03T09:53:52.372Z,11.30
2024-01-03T09:56:19.725Z,11.40
2024-01-03T09:58:48.415Z,11.40
2024-01-03T10:01:16.298Z,11.60
2024-01-03T10:03:46.554Z,11.60
2024-01-03T10:06:18.698Z,11.50
2024-01-03T10:09:01.900Z,11.40
2024-01-03T10:11:29.488Z,11.40
2024-01-03T10:13:58.293Z,11.40
2024-01-03T10:16:29.798Z,11.50
2024-01-03T10:19:14.300Z,11.50
2024-01-03T10:21:53.509Z,11.70
2024-01-03T10:24:23.662Z,11.40
2024-01-03T10:26:51.337Z,11.30
2024-01-03T10:29:21.307Z,11.40
2024-01-03T10:31:50.351Z,11.70
2024-01-03T10:34:26.447Z,11.50
2024-01-03T10:36:55.663Z,11.90
2024-01-03T10:39:24.205Z,11.60
2024-01-03T10:41:53.263Z,12.00
2024-01-03T10:44:21.378Z,12.00
2024-01-03T10:46:50.816Z,12.10
2024-01-03T10:49:19.074Z,11.90
2024-01-03T10:51:50.488Z,12.00
2024-01-03T10:54:20.511Z,12.00
2024-01-03T10:56:52.939Z,12.20
2024-01-03T10:59:27.128Z,11.90
2024-01-03T11:02:11.295Z,12.10
2024-01-03T11:04:50.961Z,12.40
2024-01-03T11:07:29.978Z,12.20
2024-01-03T11:09:57.237Z,12.70
2024-01-03T11:12:29.957Z,12.70
2024-01-03T11:15:37.416Z,12.90
2024-01-03T11:18:10.798Z,12.80
2024-01-03T11:20:38.520Z,12.80
2024-01-03T11:23:07.154Z,12.90
2024-01-03T11:25:51.175Z,12.90
2024-01-03T11:28:34.586Z,13.30
2024-01-03T11:31:02.331Z,13.00
2024-01-03T11:33:34.059Z,13.00
2024-01-03T11:36:03.828Z,13.10
2024-01-03T11:38:44.979Z,13.00
2024-01-03T11:41:19.548Z,13.10
2024-01-03T11:43:49.292Z,13.10
2024-01-03T11:46:17.296Z,13.10
2024-01-03T11:48:47.634Z,13.30
2024-01-03T11:51:27.902Z,13.20
2024-01-03T11:53:56.451Z,13.30
2024-01-03T11:56:35.658Z,13.40
2024-01-03T11:59:04.751Z,13.30
2024-01-03T12:01:35.454Z,13.10
2024-01-03T12:04:14.792Z,13.50
2024-01-03T12:06:42.208Z,13.60
2024-01-03T12:09:09.871Z,13.50
2024-01-03T12:11:38.178Z,13.70
2024-01-03T12:14:05.758Z,13.80
2024-01-03T12:16:32.984Z,13.70
2024-01-03T12:19:00.305Z,13.70
2024-01-03T12:21:27.531Z,13.60
2024-01-03T12:24:01.425Z,13.80
2024-01-03T12:26:29.940Z,14.00
2024-01-03T12:29:05.132Z,13.80
2024-01-03T12:31:32.710Z,13.80
2024-01-03T12:34:07.366Z,13.60
2024-01-03T12:36:35.291Z,13.70
2024-01-03T12:39:03.047Z,13.90
2024-01-03T12:41:30.456Z,13.60
2024-01-03T12:43:57.763Z,14.10
2024-01-03T12:46:25.025Z,14.20
2024-01-03T12:48:52.606Z,14.20
2024-01-03T12:51:23.333Z,14.20
2024-01-03T12:53:52.988Z,14.20
2024-01-03T12:56:20.276Z,14.30
2024-01-03T12:58:47.539Z,14.40
2024-01-03T13:01:14.914Z,14.20
2024-01-03T13:03:42.418Z,14.10
2024-01-03T13:06:09.896Z,14.10
2024-01-03T13:08:37.386Z,14.30
2024-01-03T13:11:04.800Z,14.30
2024-01-03T13:13:31.962Z,14.10
2024-01-03T13:15:59.925Z,14.10
2024-01-03T13:18:27.243Z,14.00
2024-01-03T13:20:54.516Z,14.20
2024-01-03T13:23:21.878Z,14.10
2024-01-03T13:25:51.701Z,14.20
2024-01-03T13:28:19.645Z,14.30
2024-01-03T13:30:47.580Z,14.50
2024-01-03T13:33:15.348Z,15.00
2024-01-03T13:35:43.480Z,15.40
2024-01-03T13:38:12.531Z,15.50
2024-01-03T13:40:44.474Z,15.80
2024-01-03T13:43:13.459Z,16.10
2024-01-03T13:45:43.743Z,16.40
2024-01-03T13:48:11.001Z,16.80
2024-01-03T13:50:38.428Z,16.50
2024-01-03T13:53:07.952Z,16.70
2024-01-03T13:55:37.476Z,16.70
2024-01-03T13:58:05.088Z,17.00
2024-01-03T14:00:32.755Z,17.00
2024-01-03T14:03:00.109Z,17.00
2024-01-03T14:05:27.681Z,17.10
2024-01-03T14:07:55.137Z,17.00
2024-01-03T14:10:22.299Z,17.00
2024-01-03T14:12:50.016Z,16.80
2024-01-03T14:15:17.740Z,16.70
2024-01-03T14:17:45.145Z,16.70
2024-01-03T14:20:16.272Z,16.30
2024-01-03T14:22:46.476Z,16.20
2024-01-03T14:25:14.835Z,16.20
2024-01-03T14:27:43.754Z,15.90
2024-01-03T14:30:13.898Z,15.70
2024-01-03T14:32:45.091Z,15.50
2024-01-03T14:35:12.566Z,16.10
2024-01-03T14:37:39.895Z,17.10
2024-01-03T14:40:13.146Z,18.60
2024-01-03T14:42:40.380Z,19.60
2024-01-03T14:45:08.376Z,20.40
2024-01-03T14:47:36.005Z,19.70
2024-01-03T14:50:03.454Z,19.00
2024-01-03T14:52:30.679Z,18.80
2024-01-03T14:54:57.890Z,18.40
2024-01-03T14:57:25.046Z,18.20
2024-01-03T14:59:53.299Z,18.50
2024-01-03T15:02:20.570Z,19.40
2024-01-03T15:04:47.853Z,20.30
2024-01-03T15:07:18.285Z,21.10
2024-01-03T15:09:45.499Z,21.20
2024-01-03T15:12:13.357Z,21.60
2024-01-03T15:14:41.127Z,21.60
2024-01-03T15:17:10.123Z,20.90
2024-01-03T15:19:37.233Z,19.60
2024-01-03T15:22:20.896Z,18.50
2024-01-03T15:24:48.506Z,17.50
2024-01-03T15:27:15.800Z,16.60
2024-01-03T15:29:43.349Z,15.90
2024-01-03T15:32:10.857Z,15.40
2024-01-03T15:34:41.916Z,14.90
2024-01-03T15:37:12.291Z,14.70
2024-01-03T15:39:40.319Z,14.30
2024-01-03T15:42:10.405Z,13.80
2024-01-03T15:44:40.614Z,13.70
2024-01-03T15:47:08.856Z,13.60
2024-01-03T15:49:36.321Z,13.40
2024-01-03T15:52:08.888Z,13.10
2024-01-03T15:54:46.882Z,13.40
2024-01-03T15:57:16.298Z,13.20
2024-01-03T15:59:44.823Z,13.00
2024-01-03T16:02:12.436Z,13.10
2024-01-03T16:04:39.734Z,12.80
2024-01-03T16:07:07.172Z,12.90
2024-01-03T16:09:36.836Z,12.90
2024-01-03T16:12:05.383Z,13.00
2024-01-03T16:14:33.736Z,13.00
2024-01-03T16:17:00.979Z,13.00
2024-01-03T16:19:28.660Z,13.10
2024-01-03T16:21:56.045Z,13.00
2024-01-03T16:24:23.665Z,12.60
2024-01-03T16:26:56.817Z,12.90
2024-01-03T16:29:27.246Z,12.50
2024-01-03T16:31:55.705Z,12.60
2024-01-03T16:34:27.710Z,12.60
2024-01-03T16:36:56.502Z,12.60
2024-01-03T16:39:24.604Z,12.40
2024-01-03T16:41:52.446Z,12.30
2024-01-03T16:44:20.417Z,12.40
2024-01-03T16:46:48.432Z,12.30
2024-01-03T16:49:19.165Z,12.50
2024-01-03T16:51:47.626Z,12.40
2024-01-03T16:54:15.663Z,12.20
2024-01-03T16:56:49.730Z,12.30
2024-01-03T16:59:19.727Z,12.20
2024-01-03T17:01:47.518Z,12.50
2024-01-03T17:04:16.108Z,12.50
2024-01-03T17:06:46.772Z,12.80
2024-01-03T17:09:16.332Z,12.90
2024-01-03T17:11:44.576Z,12.90
2024-01-03T17:14:12.159Z,12.70
2024-01-03T17:16:39.256Z,12.60
2024-01-03T17:19:06.888Z,12.90
2024-01-03T17:21:34.263Z,12.60
2024-01-03T17:24:02.118Z,13.00
2024-01-03T17:26:38.682Z,12.90
2024-01-03T17:29:11.668Z,13.00
2024-01-03T17:31:40.282Z,13.10
2024-01-03T17:34:11.015Z,13.10
2024-01-03T17:36:43.885Z,13.00
2024-01-03T17:39:12.457Z,13.00
2024-01-03T17:41:52.984Z,12.90
2024-01-03T17:44:23.553Z,13.10
2024-01-03T17:46:50.760Z,12.70
2024-01-03T17:49:23.680Z,12.80
2024-01-03T17:51:51.115Z,12.50
2024-01-03T17:54:21.529Z,12.50
2024-01-03T17:56:49.060Z,12.60
2024-01-03T17:59:16.801Z,12.50
2024-01-03T18:01:47.250Z,12.60
2024-01-03T18:04:15.038Z,12.40
2024-01-03T18:06:52.442Z,12.50
2024-01-03T18:09:19.873Z,12.50
2024-01-03T18:11:52.756Z,12.80
2024-01-03T18:14:20.080Z,12.50
2024-01-03T18:16:47.223Z,12.60
2024-01-03T18:19:15.999Z,12.50
2024-01-03T18:21:43.254Z,12.60
2024-01-03T18:24:11.365Z,12.40
2024-01-03T18:26:38.768Z,12.50
2024-01-03T18:29:06.487Z,12.20
2024-01-03T18:31:33.723Z,12.10
2024-01-03T18:34:01.147Z,11.50
2024-01-03T18:36:29.261Z,11.20
2024-01-03T18:38:58.267Z,10.90
2024-01-03T18:41:25.566Z,10.40
2024-01-03T18:43:52.733Z,10.10
2024-01-03T18:46:19.867Z,10.20
2024-01-03T18:48:48.972Z,9.70
2024-01-03T18:51:16.578Z,9.30
2024-01-03T18:53:44.025Z,9.20
2024-01-03T18:56:12.061Z,9.10
2024-01-03T18:58:39.322Z,8.80
2024-01-03T19:01:07.132Z,8.70
2024-01-03T19:03:34.336Z,8.90
2024-01-03T19:06:01.706Z,8.80
2024-01-03T19:08:28.870Z,8.70
2024-01-03T19:10:56.781Z,8.60
2024-01-03T19:13:24.328Z,8.60
2024-01-03T19:15:51.593Z,8.70
2024-01-03T19:18:19.500Z,8.70
2024-01-03T19:20:46.793Z,8.60
2024-01-03T19:23:14.751Z,8.80
2024-01-03T19:25:42.051Z,8.70
2024-01-03T19:28:09.552Z,8.70
2024-01-03T19:30:37.832Z,8.60
2024-01-03T19:33:05.446Z,8.60
2024-01-03T19:35:32.675Z,8.80
2024-01-03T19:37:59.895Z,8.50
2024-01-03T19:40:27.212Z,8.70
2024-01-03T19:42:54.452Z,8.90
2024-01-03T19:45:21.840Z,9.00
2024-01-03T19:47:49.655Z,8.90
2024-01-03T19:50:16.940Z,9.00
2024-01-03T19:52:44.204Z,9.00
2024-01-03T19:55:12.656Z,8.90
2024-01-03T19:57:42.133Z,9.10
2024-01-03T20:00:10.183Z,9.10
2024-01-03T20:02:37.593Z,9.10
2024-01-03T20:05:05.030Z,9.10
2024-01-03T20:07:32.337Z,9.30
2024-01-03T20:10:00.510Z,9.20
2024-01-03T20:12:27.778Z,9.40
2024-01-03T20:15:12.637Z,9.40
2024-01-03T20:17:40.365Z,9.40
2024-01-03T20:20:08.602Z,9.20
2024-01-03T20:22:36.010Z,9.70
2024-01-03T20:25:03.197Z,9.40
2024-01-03T20:27:30.384Z,9.50
2024-01-03T20:29:57.563Z,9.60
2024-01-03T20:32:25.320Z,9.30
2024-01-03T20:34:52.589Z,9.20
2024-01-03T20:37:19.720Z,9.50
2024-01-03T20:39:46.925Z,9.40
2024-01-03T20:42:14.054Z,9.40
2024-01-03T20:44:41.283Z,9.60
2024-01-03T20:47:08.766Z,9.60
2024-01-03T20:49:37.076Z,9.50
2024-01-03T20:52:04.622Z,9.50
2024-01-03T20:54:35.817Z,9.70
2024-01-03T20:57:02.990Z,9.60
2024-01-03T20:59:30.285Z,9.80
2024-01-03T21:01:57.445Z,9.60
2024-01-03T21:04:24.616Z,9.40
2024-01-03T21:06:51.876Z,9.50
2024-01-03T21:09:21.232Z,9.40
2024-01-03T21:11:48.450Z,9.40
2024-01-03T21:14:15.743Z,9.60
2024-01-03T21:16:45.365Z,9.60
2024-01-03T21:19:14.013Z,9.60
2024-01-03T21:21:41.489Z,9.60
2024-01-03T21:24:10.133Z,9.70
2024-01-03T21:26:38.062Z,9.40
2024-01-03T21:29:28.123Z,9.30
2024-01-03T21:31:53.291Z,9.50
2024-01-03T21:34:22.227Z,9.40
2024-01-03T21:36:49.866Z,9.50
2024-01-03T21:39:17.099Z,9.50
2024-01-03T21:41:47.586Z,9.80
2024-01-03T21:44:14.916Z,9.60
2024-01-03T21:46:42.157Z,9.80
2024-01-03T21:49:09.634Z,9.50
2024-01-03T21:51:42.334Z,9.70
2024-01-03T21:54:11.876Z,9.60
2024-01-03T21:56:44.027Z,9.60
2024-01-03T21:59:11.415Z,9.40
2024-01-03T22:01:38.642Z,9.80
2024-01-03T22:04:09.351Z,9.70
2024-01-03T22:06:36.690Z,9.50
2024-01-03T22:09:04.155Z,9.80
2024-01-03T22:11:31.521Z,9.80
2024-01-03T22:13:58.746Z,9.70
2024-01-03T22:16:26.097Z,9.70
2024-01-03T22:18:53.479Z,9.60
2024-01-03T22:21:20.686Z,9.70
2024-01-03T22:23:54.552Z,9.80
2024-01-03T22:26:22.145Z,9.70
2024-01-03T22:28:49.344Z,9.50
2024-01-03T22:31:17.576Z,9.30
2024-01-03T22:33:45.006Z,9.60
2024-01-03T22:36:17.345Z,9.50
2024-01-03T22:38:44.699Z,9.50
2024-01-03T22:41:12.079Z,9.30
2024-01-03T22:43:39.232Z,9.40
2024-01-03T22:46:06.587Z,9.20
2024-01-03T22:48:34.118Z,9.10
2024-01-03T22:51:01.526Z,9.00
2024-01-03T22:53:28.967Z,9.00
2024-01-03T22:55:56.199Z,9.00
2024-01-03T22:58:23.423Z,8.90
2024-01-03T23:00:50.756Z,8.80
2024-01-03T23:03:18.070Z,8.80
2024-01-03T23:05:45.368Z,8.80
2024-01-03T23:08:13.746Z,8.70
2024-01-03T23:10:41.092Z,8.80
2024-01-03T23:13:08.272Z,8.80
2024-01-03T23:15:37.881Z,8.80
2024-01-03T23:18:05.374Z,8.70
2024-01-03T23:20:32.942Z,8.50
2024-01-03T23:23:07.236Z,8.50
2024-01-03T23:25:37.995Z,8.70
2024-01-03T23:28:05.560Z,8.50
2024-01-03T23:30:32.815Z,8.80
2024-01-03T23:33:02.847Z,8.90
2024-01-03T23:35:30.281Z,8.70
2024-01-03T23:37:57.534Z,8.60
2024-01-03T23:40:24.688Z,8.70
2024-01-03T23:42:52.250Z,9.00
2024-01-03T23:45:19.640Z,9.00
2024-01-03T23:47:47.108Z,9.00
2024-01-03T23:50:14.496Z,8.80
2024-01-03T23:52:41.824Z,9.00
2024-01-03T23:55:09.601Z,8.70
2024-01-03T23:57:36.902Z,8.70
